sensor_id;sensor_type;location;lat;lon;timestamp;P1;durP1;ratioP1;P2;durP2;ratioP2
39584;SDS011;25278;53.674;10.014;2022-11-20T04:32:40;6.95;;;5.82;;
39584;SDS011;25278;53.674;10.014;2022-11-20T04:35:06;9.07;;;5.20;;
39584;SDS011;25278;53.674;10.014;2022-11-20T04:37:32;9.55;;;5.70;;
39584;SDS011;25278;53.674;10.014;2022-11-20T04:39:59;6.85;;;5.75;;
39584;SDS011;25278;53.674;10.014;2022-11-20T04:42:25;6.40;;;5.40;;
39584;SDS011;25278;53.674;10.014;2022-11-20T04:44:56;6.85;;;5.30;;
39584;SDS011;25278;53.674;10.014;2022-11-20T04:47:22;7.40;;;5.63;;
39584;SDS011;25278;53.674;10.014;2022-11-20T04:49:48;8.00;;;6.07;;
39584;SDS011;25278;53.674;10.014;2022-11-20T04:52:13;6.32;;;5.38;;
39584;SDS011;25278;53.674;10.014;2022-11-20T04:54:39;9.48;;;5.50;;
39584;SDS011;25278;53.674;10.014;2022-11-20T04:57:04;7.95;;;5.68;;
39584;SDS011;25278;53.674;10.014;2022-11-20T04:59:30;8.05;;;5.55;;
39584;SDS011;25278;53.674;10.014;2022-11-20T05:01:55;8.25;;;5.72;;
39584;SDS011;25278;53.674;10.014;2022-11-20T05:04:21;9.48;;;5.65;;
39584;SDS011;25278;53.674;10.014;2022-11-20T05:06:46;7.72;;;5.35;;
39584;SDS011;25278;53.674;10.014;2022-11-20T05:09:12;8.57;;;5.88;;
39584;SDS011;25278;53.674;10.014;2022-11-20T05:11:38;8.82;;;5.80;;
39584;SDS011;25278;53.674;10.014;2022-11-20T05:14:03;10.80;;;6.35;;
39584;SDS011;25278;53.674;10.014;2022-11-20T05:16:29;7.00;;;5.90;;
39584;SDS011;25278;53.674;10.014;2022-11-20T05:18:55;7.47;;;6.35;;
39584;SDS011;25278;53.674;10.014;2022-11-20T05:21:21;7.32;;;6.10;;
39584;SDS011;25278;53.674;10.014;2022-11-20T05:23:46;7.63;;;5.97;;
39584;SDS011;25278;53.674;10.014;2022-11-20T05:26:14;7.22;;;5.78;;
39584;SDS011;25278;53.674;10.014;2022-11-20T05:28:41;8.02;;;6.38;;
39584;SDS011;25278;53.674;10.014;2022-11-20T05:31:08;7.63;;;5.90;;
39584;SDS011;25278;53.674;10.014;2022-11-20T05:33:35;6.90;;;5.57;;
39584;SDS011;25278;53.674;10.014;2022-11-20T05:36:02;8.75;;;5.72;;
39584;SDS011;25278;53.674;10.014;2022-11-20T05:38:28;8.02;;;5.75;;
39584;SDS011;25278;53.674;10.014;2022-11-20T05:40:54;7.63;;;6.10;;
39584;SDS011;25278;53.674;10.014;2022-11-20T05:43:20;6.35;;;5.50;;
39584;SDS011;25278;53.674;10.014;2022-11-20T05:45:54;8.68;;;5.80;;
39584;SDS011;25278;53.674;10.014;2022-11-20T05:48:20;6.68;;;5.68;;
39584;SDS011;25278;53.674;10.014;2022-11-20T05:50:46;6.22;;;5.28;;
39584;SDS011;25278;53.674;10.014;2022-11-20T05:53:12;10.40;;;5.35;;
39584;SDS011;25278;53.674;10.014;2022-11-20T05:55:38;5.82;;;4.95;;
39584;SDS011;25278;53.674;10.014;2022-11-20T05:58:03;6.45;;;4.97;;
39584;SDS011;25278;53.674;10.014;2022-11-20T06:00:29;7.35;;;5.30;;
39584;SDS011;25278;53.674;10.014;2022-11-20T06:02:54;6.93;;;4.85;;
39584;SDS011;25278;53.674;10.014;2022-11-20T06:05:20;9.65;;;5.60;;
39584;SDS011;25278;53.674;10.014;2022-11-20T06:07:48;5.70;;;5.07;;
39584;SDS011;25278;53.674;10.014;2022-11-20T06:10:14;7.00;;;4.70;;
39584;SDS011;25278;53.674;10.014;2022-11-20T06:12:39;9.65;;;5.65;;
39584;SDS011;25278;53.674;10.014;2022-11-20T06:15:05;12.82;;;5.25;;
39584;SDS011;25278;53.674;10.014;2022-11-20T06:17:31;5.95;;;5.22;;
39584;SDS011;25278;53.674;10.014;2022-11-20T06:19:56;7.82;;;5.32;;
39584;SDS011;25278;53.674;10.014;2022-11-20T06:22:22;22.85;;;12.68;;
39584;SDS011;25278;53.674;10.014;2022-11-20T06:24:47;8.05;;;5.15;;
39584;SDS011;25278;53.674;10.014;2022-11-20T06:27:13;9.65;;;5.20;;
39584;SDS011;25278;53.674;10.014;2022-11-20T06:29:38;8.23;;;5.55;;
39584;SDS011;25278;53.674;10.014;2022-11-20T06:32:04;7.72;;;5.07;;
39584;SDS011;25278;53.674;10.014;2022-11-20T06:34:29;8.45;;;5.35;;
39584;SDS011;25278;53.674;10.014;2022-11-20T06:36:55;8.43;;;5.90;;
39584;SDS011;25278;53.674;10.014;2022-11-20T06:39:20;9.20;;;5.53;;
39584;SDS011;25278;53.674;10.014;2022-11-20T06:41:46;7.53;;;5.78;;
39584;SDS011;25278;53.674;10.014;2022-11-20T06:44:12;7.00;;;6.07;;
39584;SDS011;25278;53.674;10.014;2022-11-20T06:46:37;11.88;;;8.23;;
39584;SDS011;25278;53.674;10.014;2022-11-20T06:49:02;9.25;;;5.50;;
39584;SDS011;25278;53.674;10.014;2022-11-20T06:51:28;8.02;;;5.40;;
39584;SDS011;25278;53.674;10.014;2022-11-20T06:53:54;9.30;;;5.85;;
39584;SDS011;25278;53.674;10.014;2022-11-20T06:56:19;41.13;;;31.92;;
39584;SDS011;25278;53.674;10.014;2022-11-20T06:58:45;18.20;;;11.85;;
39584;SDS011;25278;53.674;10.014;2022-11-20T07:01:11;9.25;;;7.13;;
39584;SDS011;25278;53.674;10.014;2022-11-20T07:03:38;6.97;;;5.40;;
39584;SDS011;25278;53.674;10.014;2022-11-20T07:06:04;7.03;;;5.90;;
39584;SDS011;25278;53.674;10.014;2022-11-20T07:08:30;7.63;;;6.88;;
39584;SDS011;25278;53.674;10.014;2022-11-20T07:11:03;7.22;;;5.97;;
39584;SDS011;25278;53.674;10.014;2022-11-20T07:13:30;7.05;;;6.35;;
39584;SDS011;25278;53.674;10.014;2022-11-20T07:16:00;8.57;;;6.50;;
39584;SDS011;25278;53.674;10.014;2022-11-20T07:18:30;8.40;;;6.47;;
39584;SDS011;25278;53.674;10.014;2022-11-20T07:20:55;9.93;;;6.53;;
39584;SDS011;25278;53.674;10.014;2022-11-20T07:23:24;7.40;;;6.57;;
39584;SDS011;25278;53.674;10.014;2022-11-20T07:25:50;7.07;;;6.18;;
39584;SDS011;25278;53.674;10.014;2022-11-20T07:28:15;7.30;;;6.50;;
39584;SDS011;25278;53.674;10.014;2022-11-20T07:30:41;8.43;;;6.03;;
39584;SDS011;25278;53.674;10.014;2022-11-20T07:33:06;9.65;;;6.90;;
39584;SDS011;25278;53.674;10.014;2022-11-20T07:35:32;7.03;;;6.18;;
39584;SDS011;25278;53.674;10.014;2022-11-20T07:37:57;7.97;;;6.60;;
39584;SDS011;25278;53.674;10.014;2022-11-20T07:40:23;7.10;;;6.07;;
39584;SDS011;25278;53.674;10.014;2022-11-20T07:42:49;9.02;;;6.80;;
39584;SDS011;25278;53.674;10.014;2022-11-20T07:45:16;7.75;;;6.45;;
39584;SDS011;25278;53.674;10.014;2022-11-20T07:47:42;7.55;;;6.85;;
39584;SDS011;25278;53.674;10.014;2022-11-20T07:50:08;8.70;;;6.50;;
39584;SDS011;25278;53.674;10.014;2022-11-20T07:52:34;7.88;;;6.65;;
39584;SDS011;25278;53.674;10.014;2022-11-20T07:54:59;8.70;;;6.93;;
39584;SDS011;25278;53.674;10.014;2022-11-20T07:57:25;8.57;;;6.82;;
39584;SDS011;25278;53.674;10.014;2022-11-20T07:59:50;8.77;;;6.10;;
39584;SDS011;25278;53.674;10.014;2022-11-20T08:02:16;6.47;;;5.75;;
39584;SDS011;25278;53.674;10.014;2022-11-20T08:04:41;8.48;;;7.07;;
39584;SDS011;25278;53.674;10.014;2022-11-20T08:07:07;8.27;;;6.85;;
39584;SDS011;25278;53.674;10.014;2022-11-20T08:09:32;8.18;;;7.07;;
39584;SDS011;25278;53.674;10.014;2022-11-20T08:11:58;8.23;;;7.13;;
39584;SDS011;25278;53.674;10.014;2022-11-20T08:14:42;8.02;;;7.22;;
39584;SDS011;25278;53.674;10.014;2022-11-20T08:17:08;9.80;;;7.18;;
39584;SDS011;25278;53.674;10.014;2022-11-20T08:19:33;7.88;;;6.80;;
39584;SDS011;25278;53.674;10.014;2022-11-20T08:22:01;8.75;;;7.35;;
39584;SDS011;25278;53.674;10.014;2022-11-20T08:24:27;7.53;;;6.22;;
39584;SDS011;25278;53.674;10.014;2022-11-20T08:26:52;8.27;;;7.05;;
39584;SDS011;25278;53.674;10.014;2022-11-20T08:29:18;10.10;;;7.07;;
39584;SDS011;25278;53.674;10.014;2022-11-20T08:31:43;8.15;;;6.78;;
39584;SDS011;25278;53.674;10.014;2022-11-20T08:34:10;7.82;;;6.57;;
39584;SDS011;25278;53.674;10.014;2022-11-20T08:36:36;7.63;;;6.90;;
39584;SDS011;25278;53.674;10.014;2022-11-20T08:39:04;10.65;;;7.07;;
39584;SDS011;25278;53.674;10.014;2022-11-20T08:41:30;9.25;;;7.22;;
39584;SDS011;25278;53.674;10.014;2022-11-20T08:44:02;9.55;;;7.60;;
39584;SDS011;25278;53.674;10.014;2022-11-20T08:46:34;8.77;;;7.53;;
39584;SDS011;25278;53.674;10.014;2022-11-20T08:49:04;8.48;;;7.60;;
39584;SDS011;25278;53.674;10.014;2022-11-20T08:51:31;8.38;;;7.57;;
39584;SDS011;25278;53.674;10.014;2022-11-20T08:53:57;10.55;;;7.85;;
39584;SDS011;25278;53.674;10.014;2022-11-20T08:56:22;8.57;;;7.60;;
39584;SDS011;25278;53.674;10.014;2022-11-20T08:58:49;11.00;;;7.45;;
39584;SDS011;25278;53.674;10.014;2022-11-20T09:01:16;13.70;;;7.97;;
39584;SDS011;25278;53.674;10.014;2022-11-20T09:03:41;8.85;;;7.95;;
39584;SDS011;25278;53.674;10.014;2022-11-20T09:06:07;9.98;;;8.55;;
39584;SDS011;25278;53.674;10.014;2022-11-20T09:08:33;10.38;;;7.50;;
39584;SDS011;25278;53.674;10.014;2022-11-20T09:10:59;9.65;;;8.57;;
39584;SDS011;25278;53.674;10.014;2022-11-20T09:13:26;10.25;;;7.53;;
39584;SDS011;25278;53.674;10.014;2022-11-20T09:15:55;9.00;;;7.30;;
39584;SDS011;25278;53.674;10.014;2022-11-20T09:18:22;9.25;;;7.55;;
39584;SDS011;25278;53.674;10.014;2022-11-20T09:20:48;8.07;;;7.25;;
39584;SDS011;25278;53.674;10.014;2022-11-20T09:23:14;11.73;;;7.57;;
39584;SDS011;25278;53.674;10.014;2022-11-20T09:25:41;8.23;;;7.25;;
39584;SDS011;25278;53.674;10.014;2022-11-20T09:28:06;7.88;;;7.07;;
39584;SDS011;25278;53.674;10.014;2022-11-20T09:30:32;8.30;;;7.03;;
39584;SDS011;25278;53.674;10.014;2022-11-20T09:32:58;8.02;;;6.68;;
39584;SDS011;25278;53.674;10.014;2022-11-20T09:35:23;7.50;;;6.47;;
39584;SDS011;25278;53.674;10.014;2022-11-20T09:37:49;7.05;;;6.40;;
39584;SDS011;25278;53.674;10.014;2022-11-20T09:40:28;7.55;;;6.50;;
39584;SDS011;25278;53.674;10.014;2022-11-20T09:51:04;6.28;;;5.65;;
39584;SDS011;25278;53.674;10.014;2022-11-20T09:56:23;7.07;;;5.45;;
39584;SDS011;25278;53.674;10.014;2022-11-20T09:58:51;6.00;;;4.97;;
39584;SDS011;25278;53.674;10.014;2022-11-20T10:01:23;7.10;;;5.60;;
39584;SDS011;25278;53.674;10.014;2022-11-20T10:06:47;6.72;;;4.72;;
39584;SDS011;25278;53.674;10.014;2022-11-20T10:09:34;5.20;;;4.70;;
39584;SDS011;25278;53.674;10.014;2022-11-20T10:12:11;6.30;;;5.40;;
39584;SDS011;25278;53.674;10.014;2022-11-20T10:14:51;7.63;;;6.40;;
39584;SDS011;25278;53.674;10.014;2022-11-20T10:20:29;5.53;;;5.03;;
39584;SDS011;25278;53.674;10.014;2022-11-20T10:25:44;6.50;;;4.80;;
39584;SDS011;25278;53.674;10.014;2022-11-20T10:28:34;5.45;;;4.80;;
39584;SDS011;25278;53.674;10.014;2022-11-20T10:31:33;5.07;;;4.57;;
39584;SDS011;25278;53.674;10.014;2022-11-20T10:34:23;5.20;;;4.80;;
39584;SDS011;25278;53.674;10.014;2022-11-20T10:36:58;4.78;;;4.38;;
39584;SDS011;25278;53.674;10.014;2022-11-20T10:39:39;5.20;;;4.80;;
39584;SDS011;25278;53.674;10.014;2022-11-20T10:45:31;5.20;;;4.30;;
39584;SDS011;25278;53.674;10.014;2022-11-20T10:50:36;5.30;;;4.80;;
39584;SDS011;25278;53.674;10.014;2022-11-20T10:55:50;5.13;;;4.63;;
39584;SDS011;25278;53.674;10.014;2022-11-20T11:01:16;7.32;;;4.38;;
39584;SDS011;25278;53.674;10.014;2022-11-20T11:03:43;4.85;;;4.35;;
39584;SDS011;25278;53.674;10.014;2022-11-20T11:09:11;6.70;;;5.45;;
39584;SDS011;25278;53.674;10.014;2022-11-20T11:11:42;4.70;;;4.28;;
39584;SDS011;25278;53.674;10.014;2022-11-20T11:14:10;4.72;;;4.32;;
39584;SDS011;25278;53.674;10.014;2022-11-20T11:16:48;4.33;;;3.93;;
39584;SDS011;25278;53.674;10.014;2022-11-20T11:19:18;4.32;;;3.85;;
39584;SDS011;25278;53.674;10.014;2022-11-20T11:21:47;4.30;;;2.92;;
39584;SDS011;25278;53.674;10.014;2022-11-20T11:24:27;2.38;;;2.17;;
39584;SDS011;25278;53.674;10.014;2022-11-20T11:26:57;2.95;;;2.75;;
39584;SDS011;25278;53.674;10.014;2022-11-20T11:29:24;3.28;;;2.25;;
39584;SDS011;25278;53.674;10.014;2022-11-20T11:32:02;3.25;;;2.40;;
39584;SDS011;25278;53.674;10.014;2022-11-20T11:34:32;3.15;;;2.55;;
39584;SDS011;25278;53.674;10.014;2022-11-20T11:36:58;3.10;;;2.85;;
39584;SDS011;25278;53.674;10.014;2022-11-20T11:39:26;3.42;;;3.13;;
39584;SDS011;25278;53.674;10.014;2022-11-20T11:41:53;3.42;;;2.50;;
39584;SDS011;25278;53.674;10.014;2022-11-20T11:44:29;2.45;;;2.13;;
39584;SDS011;25278;53.674;10.014;2022-11-20T11:47:25;2.88;;;2.60;;
39584;SDS011;25278;53.674;10.014;2022-11-20T11:52:46;3.25;;;2.95;;
39584;SDS011;25278;53.674;10.014;2022-11-20T11:55:25;3.78;;;2.50;;
39584;SDS011;25278;53.674;10.014;2022-11-20T11:58:08;3.10;;;2.90;;
39584;SDS011;25278;53.674;10.014;2022-11-20T12:00:57;4.47;;;3.17;;
39584;SDS011;25278;53.674;10.014;2022-11-20T12:03:39;24.15;;;21.63;;
39584;SDS011;25278;53.674;10.014;2022-11-20T12:06:16;4.60;;;3.92;;
39584;SDS011;25278;53.674;10.014;2022-11-20T12:08:49;3.55;;;3.25;;
39584;SDS011;25278;53.674;10.014;2022-11-20T12:14:09;2.60;;;2.40;;
39584;SDS011;25278;53.674;10.014;2022-11-20T12:16:49;2.78;;;2.58;;
39584;SDS011;25278;53.674;10.014;2022-11-20T12:19:17;4.13;;;2.55;;
39584;SDS011;25278;53.674;10.014;2022-11-20T12:24:41;2.83;;;2.63;;
39584;SDS011;25278;53.674;10.014;2022-11-20T12:44:01;4.20;;;3.50;;
39584;SDS011;25278;53.674;10.014;2022-11-20T12:46:51;3.28;;;2.97;;
39584;SDS011;25278;53.674;10.014;2022-11-20T12:49:37;5.50;;;3.00;;
39584;SDS011;25278;53.674;10.014;2022-11-20T12:52:41;5.13;;;3.20;;
39584;SDS011;25278;53.674;10.014;2022-11-20T12:58:13;2.75;;;2.55;;
39584;SDS011;25278;53.674;10.014;2022-11-20T13:00:56;6.65;;;5.95;;
39584;SDS011;25278;53.674;10.014;2022-11-20T13:03:36;3.10;;;2.80;;
39584;SDS011;25278;53.674;10.014;2022-11-20T13:08:45;3.65;;;2.95;;
39584;SDS011;25278;53.674;10.014;2022-11-20T13:19:26;3.90;;;3.50;;
39584;SDS011;25278;53.674;10.014;2022-11-20T13:21:53;3.85;;;3.45;;
39584;SDS011;25278;53.674;10.014;2022-11-20T13:26:44;3.97;;;3.58;;
39584;SDS011;25278;53.674;10.014;2022-11-20T13:29:12;5.05;;;4.55;;
39584;SDS011;25278;53.674;10.014;2022-11-20T13:31:43;3.70;;;3.40;;
39584;SDS011;25278;53.674;10.014;2022-11-20T13:34:11;2.90;;;2.65;;
39584;SDS011;25278;53.674;10.014;2022-11-20T13:36:51;3.38;;;2.95;;
39584;SDS011;25278;53.674;10.014;2022-11-20T13:39:27;2.63;;;2.42;;
39584;SDS011;25278;53.674;10.014;2022-11-20T13:41:59;2.78;;;2.47;;
39584;SDS011;25278;53.674;10.014;2022-11-20T13:44:28;3.38;;;2.53;;
39584;SDS011;25278;53.674;10.014;2022-11-20T13:46:57;3.67;;;2.28;;
39584;SDS011;25278;53.674;10.014;2022-11-20T13:49:25;3.00;;;2.70;;
39584;SDS011;25278;53.674;10.014;2022-11-20T13:58:50;3.42;;;2.60;;
39584;SDS011;25278;53.674;10.014;2022-11-20T14:01:09;3.08;;;2.72;;
39584;SDS011;25278;53.674;10.014;2022-11-20T14:03:39;4.13;;;2.83;;
39584;SDS011;25278;53.674;10.014;2022-11-20T14:06:10;4.20;;;3.35;;
39584;SDS011;25278;53.674;10.014;2022-11-20T14:08:46;4.30;;;3.45;;
39584;SDS011;25278;53.674;10.014;2022-11-20T14:11:18;5.47;;;3.92;;
39584;SDS011;25278;53.674;10.014;2022-11-20T14:13:52;4.72;;;3.80;;
39584;SDS011;25278;53.674;10.014;2022-11-20T14:16:22;6.32;;;4.20;;
39584;SDS011;25278;53.674;10.014;2022-11-20T14:18:49;4.25;;;3.83;;
39584;SDS011;25278;53.674;10.014;2022-11-20T14:21:21;4.57;;;3.67;;
39584;SDS011;25278;53.674;10.014;2022-11-20T14:24:05;4.45;;;3.72;;
39584;SDS011;25278;53.674;10.014;2022-11-20T14:26:34;5.28;;;3.72;;
39584;SDS011;25278;53.674;10.014;2022-11-20T14:29:02;5.68;;;3.85;;
39584;SDS011;25278;53.674;10.014;2022-11-20T14:31:27;5.00;;;4.05;;
39584;SDS011;25278;53.674;10.014;2022-11-20T14:33:54;3.85;;;3.50;;
39584;SDS011;25278;53.674;10.014;2022-11-20T14:36:21;4.45;;;3.55;;
39584;SDS011;25278;53.674;10.014;2022-11-20T14:38:48;5.63;;;3.70;;
39584;SDS011;25278;53.674;10.014;2022-11-20T14:41:20;3.20;;;2.90;;
39584;SDS011;25278;53.674;10.014;2022-11-20T14:43:54;5.13;;;3.40;;
39584;SDS011;25278;53.674;10.014;2022-11-20T14:46:22;4.53;;;3.72;;
39584;SDS011;25278;53.674;10.014;2022-11-20T14:48:57;3.60;;;3.30;;
39584;SDS011;25278;53.674;10.014;2022-11-20T14:51:30;4.15;;;3.78;;
39584;SDS011;25278;53.674;10.014;2022-11-20T14:54:14;4.82;;;3.70;;
39584;SDS011;25278;53.674;10.014;2022-11-20T14:56:41;5.32;;;3.72;;
39584;SDS011;25278;53.674;10.014;2022-11-20T14:59:07;5.55;;;3.67;;
39584;SDS011;25278;53.674;10.014;2022-11-20T15:01:34;4.68;;;3.45;;
39584;SDS011;25278;53.674;10.014;2022-11-20T15:04:07;4.82;;;4.18;;
39584;SDS011;25278;53.674;10.014;2022-11-20T15:06:35;4.80;;;3.70;;
39584;SDS011;25278;53.674;10.014;2022-11-20T15:09:02;5.75;;;3.78;;
39584;SDS011;25278;53.674;10.014;2022-11-20T15:11:30;4.82;;;4.13;;
39584;SDS011;25278;53.674;10.014;2022-11-20T15:13:58;4.38;;;3.88;;
39584;SDS011;25278;53.674;10.014;2022-11-20T15:16:28;4.18;;;3.58;;
39584;SDS011;25278;53.674;10.014;2022-11-20T15:18:54;4.22;;;3.50;;
39584;SDS011;25278;53.674;10.014;2022-11-20T15:21:20;4.18;;;3.60;;
39584;SDS011;25278;53.674;10.014;2022-11-20T15:23:46;5.10;;;4.22;;
39584;SDS011;25278;53.674;10.014;2022-11-20T15:26:12;4.45;;;4.05;;
39584;SDS011;25278;53.674;10.014;2022-11-20T15:28:43;4.15;;;3.53;;
39584;SDS011;25278;53.674;10.014;2022-11-20T15:31:12;4.10;;;3.70;;
39584;SDS011;25278;53.674;10.014;2022-11-20T15:33:39;3.78;;;3.47;;
39584;SDS011;25278;53.674;10.014;2022-11-20T15:36:05;5.78;;;3.47;;
39584;SDS011;25278;53.674;10.014;2022-11-20T15:38:31;6.55;;;3.63;;
39584;SDS011;25278;53.674;10.014;2022-11-20T15:40:57;9.45;;;7.05;;
39584;SDS011;25278;53.674;10.014;2022-11-20T15:43:23;6.43;;;4.70;;
39584;SDS011;25278;53.674;10.014;2022-11-20T15:45:49;6.75;;;4.38;;
39584;SDS011;25278;53.674;10.014;2022-11-20T15:48:20;6.35;;;4.97;;
39584;SDS011;25278;53.674;10.014;2022-11-20T15:53:22;6.63;;;5.25;;
39584;SDS011;25278;53.674;10.014;2022-11-20T15:55:48;5.50;;;4.63;;
39584;SDS011;25278;53.674;10.014;2022-11-20T15:58:14;7.05;;;4.40;;
39584;SDS011;25278;53.674;10.014;2022-11-20T16:00:41;8.80;;;7.07;;
39584;SDS011;25278;53.674;10.014;2022-11-20T16:03:09;5.47;;;4.60;;
39584;SDS011;25278;53.674;10.014;2022-11-20T16:05:36;4.77;;;4.37;;
39584;SDS011;25278;53.674;10.014;2022-11-20T16:08:02;6.75;;;4.95;;
39584;SDS011;25278;53.674;10.014;2022-11-20T16:10:27;6.03;;;4.43;;
39584;SDS011;25278;53.674;10.014;2022-11-20T16:12:53;5.93;;;5.05;;
39584;SDS011;25278;53.674;10.014;2022-11-20T16:15:38;6.50;;;5.20;;
39584;SDS011;25278;53.674;10.014;2022-11-20T16:18:14;6.30;;;5.45;;
39584;SDS011;25278;53.674;10.014;2022-11-20T16:20:41;7.65;;;5.40;;
39584;SDS011;25278;53.674;10.014;2022-11-20T16:23:08;6.90;;;4.70;;
39584;SDS011;25278;53.674;10.014;2022-11-20T16:25:34;8.23;;;5.60;;
39584;SDS011;25278;53.674;10.014;2022-11-20T16:27:59;8.27;;;5.45;;
39584;SDS011;25278;53.674;10.014;2022-11-20T16:30:25;6.53;;;5.93;;
39584;SDS011;25278;53.674;10.014;2022-11-20T16:32:51;6.65;;;5.93;;
39584;SDS011;25278;53.674;10.014;2022-11-20T16:35:16;8.73;;;6.65;;
39584;SDS011;25278;53.674;10.014;2022-11-20T16:37:42;9.85;;;7.30;;
39584;SDS011;25278;53.674;10.014;2022-11-20T16:40:08;8.25;;;6.93;;
39584;SDS011;25278;53.674;10.014;2022-11-20T16:42:35;8.70;;;6.75;;
39584;SDS011;25278;53.674;10.014;2022-11-20T16:45:01;8.95;;;6.93;;
39584;SDS011;25278;53.674;10.014;2022-11-20T16:47:27;9.40;;;7.05;;
39584;SDS011;25278;53.674;10.014;2022-11-20T16:49:53;9.05;;;8.07;;
39584;SDS011;25278;53.674;10.014;2022-11-20T16:52:18;11.13;;;8.55;;
39584;SDS011;25278;53.674;10.014;2022-11-20T16:54:44;10.85;;;9.60;;
39584;SDS011;25278;53.674;10.014;2022-11-20T16:57:09;11.90;;;9.60;;
39584;SDS011;25278;53.674;10.014;2022-11-20T16:59:35;13.43;;;10.55;;
39584;SDS011;25278;53.674;10.014;2022-11-20T17:02:00;14.75;;;10.57;;
39584;SDS011;25278;53.674;10.014;2022-11-20T17:04:25;13.65;;;10.40;;
39584;SDS011;25278;53.674;10.014;2022-11-20T17:06:51;13.05;;;11.15;;
39584;SDS011;25278;53.674;10.014;2022-11-20T17:09:17;13.43;;;10.30;;
39584;SDS011;25278;53.674;10.014;2022-11-20T17:11:42;12.68;;;10.00;;
39584;SDS011;25278;53.674;10.014;2022-11-20T17:14:09;14.90;;;11.55;;
39584;SDS011;25278;53.674;10.014;2022-11-20T17:16:36;13.55;;;11.65;;
39584;SDS011;25278;53.674;10.014;2022-11-20T17:19:02;14.75;;;11.75;;
39584;SDS011;25278;53.674;10.014;2022-11-20T17:21:29;15.18;;;12.20;;
39584;SDS011;25278;53.674;10.014;2022-11-20T17:23:58;14.00;;;11.13;;
39584;SDS011;25278;53.674;10.014;2022-11-20T17:26:27;14.45;;;12.02;;
39584;SDS011;25278;53.674;10.014;2022-11-20T17:29:03;15.07;;;13.00;;
39584;SDS011;25278;53.674;10.014;2022-11-20T17:31:30;14.93;;;12.60;;
39584;SDS011;25278;53.674;10.014;2022-11-20T17:33:58;18.55;;;13.57;;
39584;SDS011;25278;53.674;10.014;2022-11-20T17:36:24;13.23;;;11.50;;
39584;SDS011;25278;53.674;10.014;2022-11-20T17:38:50;14.00;;;11.85;;
39584;SDS011;25278;53.674;10.014;2022-11-20T17:41:20;14.55;;;11.95;;
39584;SDS011;25278;53.674;10.014;2022-11-20T17:43:51;16.00;;;13.20;;
39584;SDS011;25278;53.674;10.014;2022-11-20T17:46:19;21.10;;;14.93;;
39584;SDS011;25278;53.674;10.014;2022-11-20T17:48:47;23.88;;;17.00;;
39584;SDS011;25278;53.674;10.014;2022-11-20T17:51:14;23.30;;;16.90;;
39584;SDS011;25278;53.674;10.014;2022-11-20T17:53:41;24.63;;;15.60;;
39584;SDS011;25278;53.674;10.014;2022-11-20T17:56:08;19.70;;;15.52;;
39584;SDS011;25278;53.674;10.014;2022-11-20T17:58:53;18.25;;;13.57;;
39584;SDS011;25278;53.674;10.014;2022-11-20T18:01:18;16.25;;;12.93;;
39584;SDS011;25278;53.674;10.014;2022-11-20T18:03:45;16.35;;;12.98;;
39584;SDS011;25278;53.674;10.014;2022-11-20T18:06:12;14.65;;;12.73;;
39584;SDS011;25278;53.674;10.014;2022-11-20T18:08:42;17.65;;;14.25;;
39584;SDS011;25278;53.674;10.014;2022-11-20T18:11:12;19.40;;;14.82;;
39584;SDS011;25278;53.674;10.014;2022-11-20T18:13:40;18.10;;;13.68;;
39584;SDS011;25278;53.674;10.014;2022-11-20T18:16:25;18.42;;;14.27;;
39584;SDS011;25278;53.674;10.014;2022-11-20T18:18:58;18.27;;;14.50;;
39584;SDS011;25278;53.674;10.014;2022-11-20T18:21:24;18.00;;;13.50;;
39584;SDS011;25278;53.674;10.014;2022-11-20T18:23:51;18.27;;;15.25;;
39584;SDS011;25278;53.674;10.014;2022-11-20T18:26:18;17.50;;;14.73;;
39584;SDS011;25278;53.674;10.014;2022-11-20T18:28:44;20.17;;;15.25;;
39584;SDS011;25278;53.674;10.014;2022-11-20T18:31:09;20.27;;;15.85;;
39584;SDS011;25278;53.674;10.014;2022-11-20T18:33:35;19.83;;;16.40;;
39584;SDS011;25278;53.674;10.014;2022-11-20T18:36:11;17.33;;;15.32;;
39584;SDS011;25278;53.674;10.014;2022-11-20T18:38:44;20.00;;;16.33;;
39584;SDS011;25278;53.674;10.014;2022-11-20T18:41:11;19.63;;;15.85;;
39584;SDS011;25278;53.674;10.014;2022-11-20T18:44:06;19.30;;;15.80;;
39584;SDS011;25278;53.674;10.014;2022-11-20T18:49:21;24.00;;;17.33;;
39584;SDS011;25278;53.674;10.014;2022-11-20T18:51:47;21.35;;;17.52;;
39584;SDS011;25278;53.674;10.014;2022-11-20T18:54:12;20.77;;;17.25;;
39584;SDS011;25278;53.674;10.014;2022-11-20T18:56:38;19.83;;;15.82;;
39584;SDS011;25278;53.674;10.014;2022-11-20T18:59:04;19.40;;;16.88;;
39584;SDS011;25278;53.674;10.014;2022-11-20T19:01:31;18.15;;;14.73;;
39584;SDS011;25278;53.674;10.014;2022-11-20T19:03:57;19.00;;;16.00;;
39584;SDS011;25278;53.674;10.014;2022-11-20T19:06:23;19.42;;;16.00;;
39584;SDS011;25278;53.674;10.014;2022-11-20T19:08:49;21.55;;;16.38;;
39584;SDS011;25278;53.674;10.014;2022-11-20T19:11:16;18.55;;;14.70;;
39584;SDS011;25278;53.674;10.014;2022-11-20T19:13:41;17.60;;;15.18;;
39584;SDS011;25278;53.674;10.014;2022-11-20T19:16:08;16.38;;;14.00;;
39584;SDS011;25278;53.674;10.014;2022-11-20T19:18:39;17.63;;;15.65;;
39584;SDS011;25278;53.674;10.014;2022-11-20T19:21:12;22.25;;;15.38;;
39584;SDS011;25278;53.674;10.014;2022-11-20T19:23:39;19.55;;;15.80;;
39584;SDS011;25278;53.674;10.014;2022-11-20T19:26:05;30.33;;;22.73;;
39584;SDS011;25278;53.674;10.014;2022-11-20T19:28:32;29.55;;;23.95;;
39584;SDS011;25278;53.674;10.014;2022-11-20T19:31:02;21.10;;;15.30;;
39584;SDS011;25278;53.674;10.014;2022-11-20T19:33:29;19.92;;;14.55;;
39584;SDS011;25278;53.674;10.014;2022-11-20T19:35:55;15.40;;;12.77;;
39584;SDS011;25278;53.674;10.014;2022-11-20T19:38:22;15.35;;;13.13;;
39584;SDS011;25278;53.674;10.014;2022-11-20T19:40:49;16.95;;;13.75;;
39584;SDS011;25278;53.674;10.014;2022-11-20T19:43:15;15.88;;;13.45;;
39584;SDS011;25278;53.674;10.014;2022-11-20T19:45:41;16.42;;;14.10;;
39584;SDS011;25278;53.674;10.014;2022-11-20T19:48:07;17.50;;;14.05;;
39584;SDS011;25278;53.674;10.014;2022-11-20T19:50:32;17.70;;;14.68;;
39584;SDS011;25278;53.674;10.014;2022-11-20T19:52:57;16.77;;;13.40;;
39584;SDS011;25278;53.674;10.014;2022-11-20T19:55:23;14.07;;;12.52;;
39584;SDS011;25278;53.674;10.014;2022-11-20T19:57:48;13.93;;;12.23;;
39584;SDS011;25278;53.674;10.014;2022-11-20T20:00:14;13.38;;;12.02;;
39584;SDS011;25278;53.674;10.014;2022-11-20T20:02:40;15.18;;;13.57;;
39584;SDS011;25278;53.674;10.014;2022-11-20T20:05:06;14.63;;;13.07;;
39584;SDS011;25278;53.674;10.014;2022-11-20T20:07:31;16.25;;;13.82;;
39584;SDS011;25278;53.674;10.014;2022-11-20T20:09:57;15.65;;;13.18;;
39584;SDS011;25278;53.674;10.014;2022-11-20T20:12:22;17.52;;;13.95;;
39584;SDS011;25278;53.674;10.014;2022-11-20T20:14:48;16.75;;;13.00;;
39584;SDS011;25278;53.674;10.014;2022-11-20T20:17:13;14.73;;;13.10;;
39584;SDS011;25278;53.674;10.014;2022-11-20T20:19:39;15.65;;;13.10;;
39584;SDS011;25278;53.674;10.014;2022-11-20T20:22:04;14.32;;;12.65;;
39584;SDS011;25278;53.674;10.014;2022-11-20T20:24:30;14.98;;;12.57;;
39584;SDS011;25278;53.674;10.014;2022-11-20T20:26:55;17.63;;;12.40;;
39584;SDS011;25278;53.674;10.014;2022-11-20T20:29:21;14.82;;;13.30;;
39584;SDS011;25278;53.674;10.014;2022-11-20T20:31:47;14.25;;;12.73;;
39584;SDS011;25278;53.674;10.014;2022-11-20T20:34:13;19.20;;;14.82;;
39584;SDS011;25278;53.674;10.014;2022-11-20T20:36:38;16.50;;;14.02;;